createdAt,value
2017-11-08T00:02:15.859Z,6.80
2017-11-08T00:04:44.210Z,6.80
2017-11-08T00:07:11.797Z,6.80
2017-11-08T00:09:40.192Z,6.90
2017-11-08T00:12:07.842Z,6.80
2017-11-08T00:14:36.189Z,6.80
2017-11-08T00:17:03.779Z,6.80
2017-11-08T00:19:32.174Z,6.90
2017-11-08T00:22:02.414Z,6.90
2017-11-08T00:24:30.869Z,6.90
2017-11-08T00:26:59.261Z,6.90
2017-11-08T00:29:26.876Z,6.90
2017-11-08T00:31:54.457Z,6.90
2017-11-08T00:34:22.824Z,6.90
2017-11-08T00:36:50.433Z,6.90
2017-11-08T00:39:18.007Z,6.90
2017-11-08T00:41:45.611Z,7.00
2017-11-08T00:44:13.224Z,6.90
2017-11-08T00:46:40.805Z,7.00
2017-11-08T00:49:08.414Z,7.00
2017-11-08T00:51:36.006Z,7.00
2017-11-08T00:54:03.659Z,7.00
2017-11-08T00:56:39.210Z,7.00
2017-11-08T00:59:06.847Z,7.10
2017-11-08T01:01:34.413Z,7.10
2017-11-08T01:04:01.983Z,7.10
2017-11-08T01:06:29.622Z,7.10
2017-11-08T01:08:57.214Z,7.10
2017-11-08T01:11:24.811Z,7.10
2017-11-08T01:13:52.392Z,7.10
2017-11-08T01:16:20.722Z,7.10
2017-11-08T01:18:48.377Z,7.10
2017-11-08T01:21:15.942Z,7.10
2017-11-08T01:23:43.542Z,7.10
2017-11-08T01:26:11.902Z,7.20
2017-11-08T01:28:39.562Z,7.20
2017-11-08T01:31:07.141Z,7.20
2017-11-08T01:33:35.499Z,7.20
2017-11-08T01:36:03.104Z,7.10
2017-11-08T01:38:30.774Z,7.20
2017-11-08T01:41:03.985Z,7.20
2017-11-08T01:43:31.566Z,7.20
2017-11-08T01:46:00.417Z,7.20
2017-11-08T01:48:28.050Z,7.10
2017-11-08T01:50:59.190Z,7.10
2017-11-08T01:53:28.876Z,7.10
2017-11-08T01:55:56.448Z,7.10
2017-11-08T01:58:24.822Z,7.20
2017-11-08T02:00:53.214Z,7.20
2017-11-08T02:03:21.570Z,7.10
2017-11-08T02:05:49.149Z,7.10
2017-11-08T02:08:17.487Z,7.10
2017-11-08T02:10:45.384Z,7.10
2017-11-08T02:13:13.731Z,7.10
2017-11-08T02:15:41.352Z,7.10
2017-11-08T02:18:14.479Z,7.10
2017-11-08T02:20:42.339Z,7.10
2017-11-08T02:23:09.916Z,7.10
2017-11-08T02:25:37.491Z,7.10
2017-11-08T02:28:05.070Z,7.00
2017-11-08T02:30:33.400Z,7.10
2017-11-08T02:33:01.034Z,7.00
2017-11-08T02:35:28.868Z,7.00
2017-11-08T02:37:57.290Z,7.10
2017-11-08T02:40:24.952Z,7.10
2017-11-08T02:42:55.113Z,7.10
2017-11-08T02:45:29.291Z,7.20
2017-11-08T02:47:56.868Z,7.20
2017-11-08T02:50:24.491Z,7.20
2017-11-08T02:52:52.104Z,7.20
2017-11-08T02:55:19.680Z,7.20
2017-11-08T02:57:48.046Z,7.20
2017-11-08T03:00:15.662Z,7.10
2017-11-08T03:02:48.826Z,7.20
2017-11-08T03:05:18.176Z,7.20
2017-11-08T03:07:45.750Z,7.20
2017-11-08T03:10:13.360Z,7.10
2017-11-08T03:12:40.930Z,7.10
2017-11-08T03:15:08.538Z,7.10
2017-11-08T03:17:37.009Z,7.10
2017-11-08T03:20:04.663Z,7.10
2017-11-08T03:22:32.299Z,7.10
2017-11-08T03:24:59.879Z,7.20
2017-11-08T03:27:27.503Z,7.20
2017-11-08T03:29:55.082Z,7.20
2017-11-08T03:32:23.053Z,7.20
2017-11-08T03:34:50.649Z,7.20
2017-11-08T03:37:18.998Z,7.20
2017-11-08T03:39:46.586Z,7.20
2017-11-08T03:42:14.158Z,7.30
2017-11-08T03:44:42.528Z,7.20
2017-11-08T03:47:10.147Z,7.20
2017-11-08T03:49:37.739Z,7.20
2017-11-08T03:52:05.310Z,7.10
2017-11-08T03:54:33.645Z,7.10
2017-11-08T03:57:01.306Z,7.10
2017-11-08T03:59:28.906Z,7.10
2017-11-08T04:01:57.270Z,7.10
2017-11-08T04:04:24.873Z,7.10
2017-11-08T04:06:52.509Z,7.00
2017-11-08T04:09:20.880Z,7.10
2017-11-08T04:11:49.241Z,7.00
2017-11-08T04:14:18.870Z,7.00
2017-11-08T04:16:52.214Z,7.00
2017-11-08T04:19:20.283Z,7.00
2017-11-08T04:21:50.388Z,7.00
2017-11-08T04:24:23.070Z,7.10
2017-11-08T04:26:51.637Z,7.10
2017-11-08T04:29:19.246Z,7.10
2017-11-08T04:31:46.850Z,7.10
2017-11-08T04:34:14.428Z,6.90
2017-11-08T04:36:42.023Z,6.90
2017-11-08T04:39:09.613Z,6.80
2017-11-08T04:41:37.962Z,6.90
2017-11-08T04:44:05.549Z,7.00
2017-11-08T04:46:33.867Z,7.00
2017-11-08T04:49:01.485Z,6.90
2017-11-08T04:51:29.834Z,6.90
2017-11-08T04:53:58.234Z,6.90
2017-11-08T04:56:25.816Z,6.90
2017-11-08T04:58:53.397Z,6.90
2017-11-08T05:01:21.013Z,6.90
2017-11-08T05:03:48.605Z,6.90
2017-11-08T05:06:16.266Z,6.90
2017-11-08T05:08:43.865Z,6.90
2017-11-08T05:11:11.462Z,6.90
2017-11-08T05:13:39.825Z,7.00
2017-11-08T05:16:07.434Z,6.90
2017-11-08T05:18:35.344Z,6.90
2017-11-08T05:21:02.989Z,6.90
2017-11-08T05:23:30.589Z,6.80
2017-11-08T05:25:58.947Z,6.80
2017-11-08T05:28:26.978Z,6.70
2017-11-08T05:30:54.576Z,6.70
2017-11-08T05:33:22.159Z,6.80
2017-11-08T05:35:50.530Z,6.90
2017-11-08T05:38:18.915Z,6.80
2017-11-08T05:40:46.529Z,6.80
2017-11-08T05:43:14.158Z,6.80
2017-11-08T05:45:41.750Z,6.70
2017-11-08T05:48:09.377Z,6.60
2017-11-08T05:50:36.967Z,6.60
2017-11-08T05:53:04.570Z,6.80
2017-11-08T05:55:32.909Z,6.80
2017-11-08T05:58:00.518Z,6.80
2017-11-08T06:00:28.910Z,6.60
2017-11-08T06:02:56.488Z,6.60
2017-11-08T06:05:24.136Z,6.60
2017-11-08T06:07:51.894Z,6.70
2017-11-08T06:10:19.609Z,6.70
2017-11-08T06:12:47.226Z,6.70
2017-11-08T06:15:14.806Z,6.70
2017-11-08T06:17:42.415Z,6.70
2017-11-08T06:20:10.773Z,6.90
2017-11-08T06:22:38.389Z,6.80
2017-11-08T06:25:05.974Z,6.80
2017-11-08T06:27:33.566Z,6.80
2017-11-08T06:30:01.931Z,6.80
2017-11-08T06:32:29.507Z,6.80
2017-11-08T06:34:57.922Z,6.70
2017-11-08T06:37:25.518Z,6.70
2017-11-08T06:39:53.124Z,6.70
2017-11-08T06:42:20.738Z,6.70
2017-11-08T06:44:48.342Z,6.70
2017-11-08T06:47:16.167Z,6.70
2017-11-08T06:49:44.517Z,6.70
2017-11-08T06:52:12.222Z,6.60
2017-11-08T06:54:39.790Z,6.70
2017-11-08T06:57:08.184Z,6.80
2017-11-08T06:59:36.546Z,6.80
2017-11-08T07:02:04.920Z,6.90
2017-11-08T07:04:33.303Z,6.90
2017-11-08T07:07:01.655Z,7.00
2017-11-08T07:09:29.246Z,7.00
2017-11-08T07:11:57.602Z,6.90
2017-11-08T07:14:25.179Z,6.90
2017-11-08T07:16:53.838Z,6.90
2017-11-08T07:19:21.397Z,6.90
2017-11-08T07:21:49.030Z,7.00
2017-11-08T07:24:16.601Z,7.00
2017-11-08T07:26:44.220Z,6.90
2017-11-08T07:29:11.824Z,6.90
2017-11-08T07:31:39.397Z,7.00
2017-11-08T07:34:06.985Z,7.00
2017-11-08T07:36:34.560Z,7.00
2017-11-08T07:39:02.427Z,6.90
2017-11-08T07:41:30.018Z,6.90
2017-11-08T07:43:57.639Z,7.00
2017-11-08T07:46:25.992Z,7.00
2017-11-08T07:48:53.571Z,7.00
2017-11-08T07:51:21.981Z,7.10
2017-11-08T07:53:49.682Z,7.00
2017-11-08T07:56:17.302Z,7.10
2017-11-08T07:58:44.879Z,7.10
2017-11-08T08:01:12.482Z,7.20
2017-11-08T08:03:40.849Z,7.20
2017-11-08T08:06:08.437Z,7.20
2017-11-08T08:08:36.022Z,7.30
2017-11-08T08:11:11.183Z,7.30
2017-11-08T08:13:39.543Z,7.40
2017-11-08T08:16:07.123Z,7.40
2017-11-08T08:18:34.696Z,7.40
2017-11-08T08:21:02.308Z,7.40
2017-11-08T08:23:30.112Z,7.50
2017-11-08T08:26:00.635Z,7.50
2017-11-08T08:28:28.457Z,7.60
2017-11-08T08:30:56.106Z,7.50
2017-11-08T08:33:24.455Z,7.50
2017-11-08T08:35:52.040Z,7.40
2017-11-08T08:38:19.686Z,7.50
2017-11-08T08:40:47.295Z,7.60
2017-11-08T08:43:14.967Z,7.60
2017-11-08T08:45:42.547Z,7.70
2017-11-08T08:48:10.182Z,7.70
2017-11-08T08:50:37.811Z,7.70
2017-11-08T08:53:06.170Z,7.80
2017-11-08T08:55:33.806Z,7.80
2017-11-08T08:58:01.383Z,7.80
2017-11-08T09:00:29.012Z,7.80
2017-11-08T09:02:56.612Z,8.00
2017-11-08T09:05:24.999Z,8.10
2017-11-08T09:07:53.579Z,8.10
2017-11-08T09:10:21.931Z,8.20
2017-11-08T09:12:49.790Z,8.10
2017-11-08T09:15:17.375Z,8.10
2017-11-08T09:17:45.722Z,8.20
2017-11-08T09:20:13.333Z,8.20
2017-11-08T09:22:41.778Z,8.30
2017-11-08T09:25:10.261Z,8.30
2017-11-08T09:27:37.850Z,8.30
2017-11-08T09:30:08.708Z,8.40
2017-11-08T09:32:36.280Z,8.40
2017-11-08T09:35:09.625Z,8.50
2017-11-08T09:37:37.217Z,8.60
2017-11-08T09:40:04.782Z,8.60
2017-11-08T09:42:36.249Z,8.70
2017-11-08T09:45:03.832Z,8.80
2017-11-08T09:47:31.783Z,8.70
2017-11-08T09:50:01.260Z,8.70
2017-11-08T09:52:28.860Z,8.70
2017-11-08T09:54:56.459Z,8.60
2017-11-08T09:57:25.655Z,8.60
2017-11-08T09:59:53.277Z,8.60
2017-11-08T10:02:20.872Z,8.60
2017-11-08T10:04:49.231Z,8.60
2017-11-08T10:07:16.807Z,8.60
2017-11-08T10:09:51.013Z,8.60
2017-11-08T10:12:18.562Z,8.60
2017-11-08T10:14:46.945Z,8.60
2017-11-08T10:17:15.298Z,8.50
2017-11-08T10:19:42.883Z,8.50
2017-11-08T10:22:10.546Z,8.60
2017-11-08T10:24:42.806Z,8.60
2017-11-08T10:27:10.401Z,8.60
2017-11-08T10:29:37.971Z,8.40
2017-11-08T10:32:05.588Z,8.50
2017-11-08T10:34:33.177Z,8.40
2017-11-08T10:37:00.799Z,8.40
2017-11-08T10:39:28.380Z,8.30
2017-11-08T10:41:56.739Z,8.40
2017-11-08T10:44:24.321Z,8.40
2017-11-08T10:46:51.933Z,8.50
2017-11-08T10:49:21.378Z,8.50
2017-11-08T10:51:49.397Z,8.60
2017-11-08T10:54:16.999Z,8.60
2017-11-08T10:56:44.588Z,8.70
2017-11-08T10:59:17.902Z,8.60
2017-11-08T11:01:46.230Z,8.70
2017-11-08T11:04:13.819Z,8.70
2017-11-08T11:06:41.412Z,8.80
2017-11-08T11:09:09.034Z,8.70
2017-11-08T11:11:36.911Z,8.80
2017-11-08T11:14:13.177Z,8.60
2017-11-08T11:16:40.839Z,8.60
2017-11-08T11:19:13.371Z,8.60
2017-11-08T11:21:40.967Z,8.30
2017-11-08T11:24:13.348Z,8.30
2017-11-08T11:26:41.849Z,8.30
2017-11-08T11:29:10.219Z,8.40
2017-11-08T11:31:37.802Z,8.40
2017-11-08T11:34:06.225Z,8.40
2017-11-08T11:36:33.795Z,8.40
2017-11-08T11:39:01.374Z,8.40
2017-11-08T11:41:28.956Z,8.40
2017-11-08T11:43:56.548Z,8.30
2017-11-08T11:46:24.106Z,8.30
2017-11-08T11:48:53.518Z,8.30
2017-11-08T11:51:25.930Z,8.30
2017-11-08T11:53:53.507Z,8.40
2017-11-08T11:56:21.122Z,8.40
2017-11-08T11:58:48.704Z,8.40
2017-11-08T12:01:16.327Z,8.40
2017-11-08T12:03:43.952Z,8.40
2017-11-08T12:06:11.511Z,8.40
2017-11-08T12:08:39.874Z,8.40
2017-11-08T12:11:07.488Z,8.40
2017-11-08T12:13:35.419Z,8.50
2017-11-08T12:16:02.999Z,8.60
2017-11-08T12:18:31.349Z,8.50
2017-11-08T12:20:58.949Z,8.50
2017-11-08T12:23:26.566Z,8.60
2017-11-08T12:25:54.168Z,8.60
2017-11-08T12:28:23.668Z,8.60
2017-11-08T12:30:52.000Z,8.70
2017-11-08T12:33:19.638Z,8.70
2017-11-08T12:35:48.186Z,8.70
2017-11-08T12:38:16.643Z,8.60
2017-11-08T12:40:44.260Z,8.60
2017-11-08T12:43:13.573Z,8.40
2017-11-08T12:45:41.155Z,8.20
2017-11-08T12:48:08.742Z,8.20
2017-11-08T12:50:36.336Z,8.20
2017-11-08T12:53:03.911Z,8.10
2017-11-08T12:55:31.484Z,8.10
2017-11-08T12:57:59.580Z,8.10
2017-11-08T13:00:27.236Z,8.20
2017-11-08T13:02:54.806Z,8.30
2017-11-08T13:05:28.996Z,8.30
2017-11-08T13:07:56.628Z,8.50
2017-11-08T13:10:25.104Z,8.50
2017-11-08T13:12:52.627Z,8.70
2017-11-08T13:15:20.983Z,8.70
2017-11-08T13:17:49.355Z,8.70
2017-11-08T13:20:16.978Z,8.70
2017-11-08T13:22:44.567Z,8.70
2017-11-08T13:25:12.143Z,8.60
2017-11-08T13:27:39.878Z,8.50
2017-11-08T13:30:07.452Z,8.40
2017-11-08T13:32:35.098Z,8.50
2017-11-08T13:35:02.699Z,8.40
2017-11-08T13:37:30.266Z,8.40
2017-11-08T13:39:57.937Z,8.40
2017-11-08T13:42:26.290Z,8.30
2017-11-08T13:44:53.910Z,8.30
2017-11-08T13:47:21.498Z,8.30
2017-11-08T13:49:49.093Z,8.30
2017-11-08T13:52:17.457Z,8.30
2017-11-08T13:54:45.900Z,8.30
2017-11-08T13:57:13.512Z,8.20
2017-11-08T13:59:41.885Z,8.10
2017-11-08T14:02:10.528Z,8.10
2017-11-08T14:04:38.095Z,8.00
2017-11-08T14:07:05.723Z,8.00
2017-11-08T14:09:33.326Z,8.00
2017-11-08T14:12:00.905Z,8.00
2017-11-08T14:14:29.314Z,7.80
2017-11-08T14:16:56.883Z,7.80
2017-11-08T14:19:24.497Z,7.80
2017-11-08T14:21:52.101Z,7.80
2017-11-08T14:24:19.692Z,7.80
2017-11-08T14:26:47.354Z,7.80
2017-11-08T14:29:20.817Z,7.80
2017-11-08T14:31:48.439Z,7.90
2017-11-08T14:34:16.831Z,7.80
2017-11-08T14:36:45.076Z,7.80
2017-11-08T14:39:12.691Z,7.70
2017-11-08T14:41:54.896Z,7.70
2017-11-08T14:44:22.440Z,7.60
2017-11-08T14:46:50.054Z,7.60
2017-11-08T14:49:17.695Z,7.60
2017-11-08T14:51:45.285Z,7.70
2017-11-08T14:54:13.692Z,7.70
2017-11-08T14:56:42.074Z,7.80
2017-11-08T14:59:10.858Z,7.70
2017-11-08T15:01:39.398Z,7.70
2017-11-08T15:04:06.989Z,7.70
2017-11-08T15:06:35.368Z,7.70
2017-11-08T15:09:03.708Z,7.60
2017-11-08T15:11:35.710Z,7.60
2017-11-08T15:14:04.964Z,7.60
2017-11-08T15:16:32.592Z,7.50
2017-11-08T15:19:00.188Z,7.50
2017-11-08T15:21:27.807Z,7.60
2017-11-08T15:23:55.424Z,7.60
2017-11-08T15:26:23.006Z,7.60
2017-11-08T15:28:50.907Z,7.50
2017-11-08T15:31:18.477Z,7.50
2017-11-08T15:33:46.056Z,7.40
2017-11-08T15:36:13.673Z,7.30
2017-11-08T15:38:41.256Z,7.10
2017-11-08T15:41:08.878Z,7.10
2017-11-08T15:43:37.241Z,7.10
2017-11-08T15:46:04.867Z,7.10
2017-11-08T15:48:32.451Z,7.10
2017-11-08T15:51:00.007Z,7.10
2017-11-08T15:53:27.628Z,7.00
2017-11-08T15:55:58.009Z,7.10
2017-11-08T15:58:26.358Z,7.10
2017-11-08T16:00:53.968Z,7.10
2017-11-08T16:03:22.844Z,7.10
2017-11-08T16:05:50.430Z,7.10
2017-11-08T16:08:18.035Z,7.10
2017-11-08T16:10:45.663Z,7.10
2017-11-08T16:13:13.230Z,6.90
2017-11-08T16:15:40.842Z,6.80
2017-11-08T16:18:09.188Z,6.70
2017-11-08T16:20:36.809Z,6.70
2017-11-08T16:23:04.423Z,6.70
2017-11-08T16:25:32.039Z,6.70
2017-11-08T16:27:59.663Z,6.80
2017-11-08T16:30:28.192Z,6.80
2017-11-08T16:32:55.796Z,6.80
2017-11-08T16:35:23.380Z,6.90
2017-11-08T16:37:51.723Z,6.90
2017-11-08T16:40:19.383Z,6.90
2017-11-08T16:42:47.013Z,6.80
2017-11-08T16:45:14.631Z,6.90
2017-11-08T16:47:42.295Z,6.90
2017-11-08T16:50:11.113Z,6.80
2017-11-08T16:52:38.905Z,6.80
2017-11-08T16:55:06.519Z,6.80
2017-11-08T16:57:34.134Z,6.80
2017-11-08T17:00:01.858Z,6.80
2017-11-08T17:02:29.459Z,6.90
2017-11-08T17:04:57.055Z,6.90
2017-11-08T17:07:25.415Z,7.00
2017-11-08T17:09:53.176Z,7.00
2017-11-08T17:12:20.775Z,7.00
2017-11-08T17:14:48.384Z,7.00
2017-11-08T17:17:15.987Z,7.00
2017-11-08T17:19:43.660Z,6.90
2017-11-08T17:22:11.297Z,6.90
2017-11-08T17:24:38.911Z,6.90
2017-11-08T17:27:06.636Z,6.90
2017-11-08T17:29:34.207Z,6.90
2017-11-08T17:32:01.864Z,6.90
2017-11-08T17:34:30.229Z,6.90
2017-11-08T17:36:57.963Z,6.90
2017-11-08T17:39:25.885Z,6.90
2017-11-08T17:41:53.526Z,7.00
2017-11-08T17:44:21.239Z,6.90
2017-11-08T17:46:48.871Z,6.80
2017-11-08T17:49:16.514Z,6.70
2017-11-08T17:51:44.129Z,6.70
2017-11-08T17:54:12.516Z,6.70
2017-11-08T17:56:40.898Z,6.70
2017-11-08T17:59:08.521Z,6.70
2017-11-08T18:01:36.131Z,6.70
2017-11-08T18:04:03.803Z,6.70
2017-11-08T18:06:31.456Z,6.60
2017-11-08T18:08:59.060Z,6.60
2017-11-08T18:11:26.968Z,6.60
2017-11-08T18:13:55.408Z,6.70
2017-11-08T18:16:23.044Z,6.60
2017-11-08T18:18:50.672Z,6.70
2017-11-08T18:21:19.050Z,6.60
2017-11-08T18:23:46.812Z,6.60
2017-11-08T18:26:15.330Z,6.50
2017-11-08T18:28:43.005Z,6.50
2017-11-08T18:31:10.669Z,6.60
2017-11-08T18:33:38.341Z,6.50
2017-11-08T18:36:05.971Z,6.50
2017-11-08T18:38:33.723Z,6.50
2017-11-08T18:41:01.382Z,6.40
2017-11-08T18:43:29.028Z,6.50
2017-11-08T18:45:57.426Z,6.50
2017-11-08T18:48:25.065Z,6.50
2017-11-08T18:50:53.437Z,6.50
2017-11-08T18:53:21.824Z,6.40
2017-11-08T18:55:50.263Z,6.50
2017-11-08T18:58:17.909Z,6.40
2017-11-08T19:00:45.550Z,6.50
2017-11-08T19:03:15.037Z,6.50
2017-11-08T19:05:42.696Z,6.60
2017-11-08T19:08:11.136Z,6.60
2017-11-08T19:10:38.715Z,6.60
2017-11-08T19:13:06.405Z,6.50
2017-11-08T19:15:34.072Z,6.50
2017-11-08T19:18:01.706Z,6.60
2017-11-08T19:20:30.097Z,6.60
2017-11-08T19:22:57.731Z,6.60
2017-11-08T19:25:25.576Z,6.60
2017-11-08T19:27:53.490Z,6.60
2017-11-08T19:30:21.280Z,6.60
2017-11-08T19:32:48.902Z,6.60
2017-11-08T19:35:16.593Z,6.70
2017-11-08T19:37:44.259Z,6.70
2017-11-08T19:40:12.141Z,6.70
2017-11-08T19:42:39.792Z,6.60
2017-11-08T19:45:07.421Z,6.60
2017-11-08T19:47:36.869Z,6.50
2017-11-08T19:50:04.497Z,6.40
2017-11-08T19:52:32.577Z,6.50
2017-11-08T19:55:00.200Z,6.50
2017-11-08T19:57:27.849Z,6.50
2017-11-08T19:59:55.497Z,6.60
2017-11-08T20:02:23.164Z,6.50
2017-11-08T20:04:51.284Z,6.60
2017-11-08T20:07:19.013Z,6.70
2017-11-08T20:09:46.668Z,6.80
2017-11-08T20:12:14.331Z,6.70
2017-11-08T20:14:41.979Z,6.60
2017-11-08T20:17:09.891Z,6.60
2017-11-08T20:19:37.561Z,6.60
2017-11-08T20:22:05.202Z,6.60
2017-11-08T20:24:32.840Z,6.60
2017-11-08T20:27:00.481Z,6.60
2017-11-08T20:29:28.473Z,6.70
2017-11-08T20:31:56.079Z,6.70
2017-11-08T20:34:23.717Z,6.80
2017-11-08T20:36:52.212Z,6.80
2017-11-08T20:39:20.829Z,6.80
2017-11-08T20:41:49.154Z,6.80
2017-11-08T20:44:18.012Z,6.80
2017-11-08T20:46:45.728Z,6.80
2017-11-08T20:49:13.502Z,6.80
2017-11-08T20:51:42.184Z,6.80
2017-11-08T20:54:10.201Z,6.80
2017-11-08T20:56:37.911Z,6.80
2017-11-08T20:59:05.793Z,6.80
2017-11-08T21:01:33.484Z,6.90
2017-11-08T21:04:01.101Z,6.90
2017-11-08T21:06:29.084Z,6.90
2017-11-08T21:08:56.690Z,6.80
2017-11-08T21:11:24.356Z,6.80
2017-11-08T21:13:51.961Z,6.90
2017-11-08T21:16:19.565Z,6.90
2017-11-08T21:18:47.590Z,6.90
2017-11-08T21:21:15.395Z,6.90
2017-11-08T21:23:43.047Z,6.90
2017-11-08T21:26:10.662Z,6.90
2017-11-08T21:28:38.263Z,6.90
2017-11-08T21:31:06.355Z,7.00
2017-11-08T21:33:34.026Z,6.90
2017-11-08T21:36:01.613Z,6.90
2017-11-08T21:38:29.207Z,6.80
2017-11-08T21:40:56.844Z,6.70
2017-11-08T21:43:25.484Z,6.70
2017-11-08T21:45:53.082Z,6.70
2017-11-08T21:48:20.779Z,6.80
2017-11-08T21:50:48.417Z,6.70
2017-11-08T21:53:15.996Z,6.60
2017-11-08T21:55:43.880Z,6.60
2017-11-08T21:58:11.506Z,6.50
2017-11-08T22:00:39.167Z,6.60
2017-11-08T22:03:07.029Z,6.60
2017-11-08T22:05:35.495Z,6.70
2017-11-08T22:08:03.442Z,6.70
2017-11-08T22:10:31.936Z,6.70
2017-11-08T22:12:59.597Z,6.60
2017-11-08T22:15:29.506Z,6.70
2017-11-08T22:17:57.971Z,6.70
2017-11-08T22:20:25.710Z,6.70
2017-11-08T22:22:53.579Z,6.80
2017-11-08T22:25:21.356Z,6.90
2017-11-08T22:27:48.960Z,6.90
2017-11-08T22:30:16.653Z,6.90
2017-11-08T22:32:44.299Z,6.70
2017-11-08T22:35:12.190Z,6.80
2017-11-08T22:37:39.828Z,6.80
2017-11-08T22:40:07.487Z,6.80
2017-11-08T22:42:35.113Z,6.70
2017-11-08T22:45:03.531Z,6.40
2017-11-08T22:47:31.435Z,6.40
2017-11-08T22:49:59.035Z,6.40
2017-11-08T22:52:26.695Z,6.40
2017-11-08T22:54:54.336Z,6.40
2017-11-08T22:57:22.700Z,6.60
2017-11-08T22:59:50.677Z,6.50
2017-11-08T23:02:18.270Z,6.60
2017-11-08T23:04:45.891Z,6.60
2017-11-08T23:07:13.511Z,6.60
2017-11-08T23:09:41.105Z,6.60
2017-11-08T23:12:09.782Z,6.60
2017-11-08T23:14:37.675Z,6.70
2017-11-08T23:17:06.043Z,6.60
2017-11-08T23:19:33.671Z,6.60
2017-11-08T23:22:01.334Z,6.60
2017-11-08T23:24:29.400Z,6.60
2017-11-08T23:26:57.015Z,6.60
2017-11-08T23:29:25.376Z,6.70
2017-11-08T23:31:52.984Z,6.60
2017-11-08T23:34:20.588Z,6.70
2017-11-08T23:36:50.182Z,6.60
2017-11-08T23:39:17.797Z,6.60
2017-11-08T23:41:47.247Z,6.70
2017-11-08T23:44:15.315Z,6.80
2017-11-08T23:46:42.921Z,6.70
2017-11-08T23:49:10.510Z,6.70
2017-11-08T23:51:38.888Z,6.80
2017-11-08T23:54:06.465Z,6.70
2017-11-08T23:56:34.534Z,6.70
2017-11-08T23:59:17.006Z,6.60
